Trumbull, Connecticut
Current Conditions -  °F | °C
As of 12:52 AM on Thursday 23 Oct 2014 (Local Time) from KBDR Reporting Station
Light Rain Light Rain  
Wind Chill: 52°   Ceiling: 7000
Heat Index: 52°   Visibility: 10mi
Dew Point: 47°   Wind: 32mph
Humidity: 83%   Direction: 20°NNE
Pressure: 29.69"   Gusts: 46mph
Location:  41.23°N, 73.22°W
Report Text: KBDR 230452Z 02028G40KT 10SM -RA FEW011 BKN070 11/08 A2969 RMK AO2 PK WND 04040/0447 RAB0355E26B50 SLP052 P0000 T01110083 401440100
Loading
Personal Weather Stations






























Interactive Weather Map
Tropical Storm Tracking
New forecast layout! Learn more

10-Day Weather Forecast

Advertisements
Track Severe Weather on mobile